sensor_id;sensor_type;location;lat;lon;timestamp;P1;durP1;ratioP1;P2;durP2;ratioP2
77520;SDS011;66633;47.628;19.158;2023-05-29T00:01:25;8.02;;;3.72;;
77520;SDS011;66633;47.628;19.158;2023-05-29T00:03:51;9.60;;;3.33;;
77520;SDS011;66633;47.628;19.158;2023-05-29T00:06:17;7.88;;;3.95;;
77520;SDS011;66633;47.628;19.158;2023-05-29T00:08:44;9.25;;;4.20;;
77520;SDS011;66633;47.628;19.158;2023-05-29T00:11:10;7.60;;;4.03;;
77520;SDS011;66633;47.628;19.158;2023-05-29T00:13:35;7.95;;;4.03;;
77520;SDS011;66633;47.628;19.158;2023-05-29T00:16:01;8.27;;;4.00;;
77520;SDS011;66633;47.628;19.158;2023-05-29T00:18:27;9.30;;;3.75;;
77520;SDS011;66633;47.628;19.158;2023-05-29T00:20:52;7.85;;;3.75;;
77520;SDS011;66633;47.628;19.158;2023-05-29T00:23:18;8.18;;;3.95;;
77520;SDS011;66633;47.628;19.158;2023-05-29T00:25:44;8.25;;;4.18;;
77520;SDS011;66633;47.628;19.158;2023-05-29T00:28:10;12.02;;;5.10;;
77520;SDS011;66633;47.628;19.158;2023-05-29T00:30:37;9.65;;;4.13;;
77520;SDS011;66633;47.628;19.158;2023-05-29T00:33:03;8.40;;;4.07;;
77520;SDS011;66633;47.628;19.158;2023-05-29T00:35:28;8.73;;;4.22;;
77520;SDS011;66633;47.628;19.158;2023-05-29T00:37:54;9.38;;;4.25;;
77520;SDS011;66633;47.628;19.158;2023-05-29T00:40:20;8.10;;;4.15;;
77520;SDS011;66633;47.628;19.158;2023-05-29T00:42:45;7.57;;;3.78;;
77520;SDS011;66633;47.628;19.158;2023-05-29T00:45:11;7.72;;;3.63;;
77520;SDS011;66633;47.628;19.158;2023-05-29T00:47:38;8.13;;;3.70;;
77520;SDS011;66633;47.628;19.158;2023-05-29T00:50:04;7.68;;;3.47;;
77520;SDS011;66633;47.628;19.158;2023-05-29T00:52:31;8.32;;;3.88;;
77520;SDS011;66633;47.628;19.158;2023-05-29T00:54:57;8.15;;;3.97;;
77520;SDS011;66633;47.628;19.158;2023-05-29T00:57:25;8.27;;;4.35;;
77520;SDS011;66633;47.628;19.158;2023-05-29T00:59:51;8.40;;;4.18;;
77520;SDS011;66633;47.628;19.158;2023-05-29T01:02:16;8.55;;;4.15;;
77520;SDS011;66633;47.628;19.158;2023-05-29T01:04:44;9.48;;;4.10;;
77520;SDS011;66633;47.628;19.158;2023-05-29T01:07:10;8.85;;;4.05;;
77520;SDS011;66633;47.628;19.158;2023-05-29T01:09:36;9.95;;;4.13;;
77520;SDS011;66633;47.628;19.158;2023-05-29T01:20:31;8.80;;;3.47;;
77520;SDS011;66633;47.628;19.158;2023-05-29T01:28:30;8.07;;;3.70;;
77520;SDS011;66633;47.628;19.158;2023-05-29T01:31:02;8.05;;;3.50;;
77520;SDS011;66633;47.628;19.158;2023-05-29T01:33:29;7.53;;;3.90;;
77520;SDS011;66633;47.628;19.158;2023-05-29T01:35:54;7.00;;;3.22;;
77520;SDS011;66633;47.628;19.158;2023-05-29T01:38:20;6.38;;;2.80;;
77520;SDS011;66633;47.628;19.158;2023-05-29T01:40:45;7.75;;;3.40;;
77520;SDS011;66633;47.628;19.158;2023-05-29T01:43:12;8.05;;;3.97;;
77520;SDS011;66633;47.628;19.158;2023-05-29T01:45:38;8.35;;;3.83;;
77520;SDS011;66633;47.628;19.158;2023-05-29T01:48:04;7.35;;;3.63;;
77520;SDS011;66633;47.628;19.158;2023-05-29T01:50:31;7.80;;;3.90;;
77520;SDS011;66633;47.628;19.158;2023-05-29T01:52:56;10.25;;;3.90;;
77520;SDS011;66633;47.628;19.158;2023-05-29T01:55:22;9.70;;;4.20;;
77520;SDS011;66633;47.628;19.158;2023-05-29T01:57:47;9.98;;;4.18;;
77520;SDS011;66633;47.628;19.158;2023-05-29T02:00:16;8.43;;;4.25;;
77520;SDS011;66633;47.628;19.158;2023-05-29T02:02:42;7.68;;;3.50;;
77520;SDS011;66633;47.628;19.158;2023-05-29T02:05:08;7.10;;;3.50;;
77520;SDS011;66633;47.628;19.158;2023-05-29T02:07:34;7.45;;;3.85;;
77520;SDS011;66633;47.628;19.158;2023-05-29T02:10:02;8.77;;;4.00;;
77520;SDS011;66633;47.628;19.158;2023-05-29T02:12:28;6.35;;;3.13;;
77520;SDS011;66633;47.628;19.158;2023-05-29T02:14:54;8.98;;;3.63;;
77520;SDS011;66633;47.628;19.158;2023-05-29T02:17:19;6.57;;;2.97;;
77520;SDS011;66633;47.628;19.158;2023-05-29T02:19:45;7.15;;;3.33;;
77520;SDS011;66633;47.628;19.158;2023-05-29T02:22:10;7.15;;;3.50;;
77520;SDS011;66633;47.628;19.158;2023-05-29T02:24:35;6.78;;;2.90;;
77520;SDS011;66633;47.628;19.158;2023-05-29T02:27:01;8.65;;;3.47;;
77520;SDS011;66633;47.628;19.158;2023-05-29T02:29:28;7.90;;;2.97;;
77520;SDS011;66633;47.628;19.158;2023-05-29T02:31:53;7.68;;;3.60;;
77520;SDS011;66633;47.628;19.158;2023-05-29T02:34:18;7.32;;;3.60;;
77520;SDS011;66633;47.628;19.158;2023-05-29T02:36:44;6.65;;;3.35;;
77520;SDS011;66633;47.628;19.158;2023-05-29T02:39:09;7.53;;;3.42;;
77520;SDS011;66633;47.628;19.158;2023-05-29T02:41:35;7.90;;;3.60;;
77520;SDS011;66633;47.628;19.158;2023-05-29T02:44:00;7.97;;;3.45;;
77520;SDS011;66633;47.628;19.158;2023-05-29T02:46:26;7.45;;;3.67;;
77520;SDS011;66633;47.628;19.158;2023-05-29T02:48:51;9.63;;;4.25;;
77520;SDS011;66633;47.628;19.158;2023-05-29T02:51:17;8.02;;;4.18;;
77520;SDS011;66633;47.628;19.158;2023-05-29T02:53:42;7.70;;;4.00;;
77520;SDS011;66633;47.628;19.158;2023-05-29T02:56:07;9.63;;;4.03;;
77520;SDS011;66633;47.628;19.158;2023-05-29T02:58:37;8.88;;;4.07;;
77520;SDS011;66633;47.628;19.158;2023-05-29T03:01:02;9.20;;;4.30;;
77520;SDS011;66633;47.628;19.158;2023-05-29T03:03:29;9.77;;;4.20;;
77520;SDS011;66633;47.628;19.158;2023-05-29T03:05:54;10.00;;;4.35;;
77520;SDS011;66633;47.628;19.158;2023-05-29T03:08:20;9.35;;;3.90;;
77520;SDS011;66633;47.628;19.158;2023-05-29T03:10:45;8.68;;;4.38;;
77520;SDS011;66633;47.628;19.158;2023-05-29T03:13:12;8.25;;;4.15;;
77520;SDS011;66633;47.628;19.158;2023-05-29T03:15:37;10.02;;;4.32;;
77520;SDS011;66633;47.628;19.158;2023-05-29T03:18:03;9.23;;;4.18;;
77520;SDS011;66633;47.628;19.158;2023-05-29T03:20:28;9.48;;;4.72;;
77520;SDS011;66633;47.628;19.158;2023-05-29T03:22:53;9.15;;;4.45;;
77520;SDS011;66633;47.628;19.158;2023-05-29T03:25:19;8.93;;;4.30;;
77520;SDS011;66633;47.628;19.158;2023-05-29T03:27:46;9.10;;;4.15;;
77520;SDS011;66633;47.628;19.158;2023-05-29T03:30:11;9.25;;;4.93;;
77520;SDS011;66633;47.628;19.158;2023-05-29T03:32:37;9.25;;;4.32;;
77520;SDS011;66633;47.628;19.158;2023-05-29T03:35:02;10.57;;;4.20;;
77520;SDS011;66633;47.628;19.158;2023-05-29T03:37:28;16.17;;;5.35;;
77520;SDS011;66633;47.628;19.158;2023-05-29T03:39:54;8.57;;;4.65;;
77520;SDS011;66633;47.628;19.158;2023-05-29T03:42:20;8.93;;;4.50;;
77520;SDS011;66633;47.628;19.158;2023-05-29T03:44:46;8.10;;;4.25;;
77520;SDS011;66633;47.628;19.158;2023-05-29T03:47:11;8.98;;;4.10;;
77520;SDS011;66633;47.628;19.158;2023-05-29T03:49:37;9.80;;;4.20;;
77520;SDS011;66633;47.628;19.158;2023-05-29T03:52:02;9.60;;;4.47;;
77520;SDS011;66633;47.628;19.158;2023-05-29T03:54:28;8.43;;;4.50;;
77520;SDS011;66633;47.628;19.158;2023-05-29T03:56:54;7.85;;;3.92;;
77520;SDS011;66633;47.628;19.158;2023-05-29T03:59:19;13.15;;;5.05;;
77520;SDS011;66633;47.628;19.158;2023-05-29T04:01:45;9.25;;;4.47;;
77520;SDS011;66633;47.628;19.158;2023-05-29T04:04:10;7.90;;;4.47;;
77520;SDS011;66633;47.628;19.158;2023-05-29T04:06:36;8.98;;;4.47;;
77520;SDS011;66633;47.628;19.158;2023-05-29T04:09:05;10.07;;;5.63;;
77520;SDS011;66633;47.628;19.158;2023-05-29T04:11:32;8.15;;;4.60;;
77520;SDS011;66633;47.628;19.158;2023-05-29T04:14:00;9.40;;;4.47;;
77520;SDS011;66633;47.628;19.158;2023-05-29T04:16:27;9.38;;;4.68;;
77520;SDS011;66633;47.628;19.158;2023-05-29T04:18:53;10.00;;;4.28;;
77520;SDS011;66633;47.628;19.158;2023-05-29T04:21:18;8.85;;;4.40;;
77520;SDS011;66633;47.628;19.158;2023-05-29T04:23:44;8.77;;;4.20;;
77520;SDS011;66633;47.628;19.158;2023-05-29T04:26:09;8.07;;;4.03;;
77520;SDS011;66633;47.628;19.158;2023-05-29T04:28:35;9.85;;;4.50;;
77520;SDS011;66633;47.628;19.158;2023-05-29T04:31:02;8.90;;;4.68;;
77520;SDS011;66633;47.628;19.158;2023-05-29T04:33:28;8.82;;;4.50;;
77520;SDS011;66633;47.628;19.158;2023-05-29T04:35:54;10.23;;;4.70;;
77520;SDS011;66633;47.628;19.158;2023-05-29T04:38:20;9.55;;;4.70;;
77520;SDS011;66633;47.628;19.158;2023-05-29T04:43:15;10.57;;;4.95;;
77520;SDS011;66633;47.628;19.158;2023-05-29T04:45:41;10.63;;;4.45;;
77520;SDS011;66633;47.628;19.158;2023-05-29T04:48:07;8.55;;;5.20;;
77520;SDS011;66633;47.628;19.158;2023-05-29T04:50:33;10.60;;;5.07;;
77520;SDS011;66633;47.628;19.158;2023-05-29T04:53:00;10.30;;;5.30;;
77520;SDS011;66633;47.628;19.158;2023-05-29T04:55:25;10.50;;;4.30;;
77520;SDS011;66633;47.628;19.158;2023-05-29T04:57:51;9.40;;;5.03;;
77520;SDS011;66633;47.628;19.158;2023-05-29T05:00:18;9.02;;;4.93;;
77520;SDS011;66633;47.628;19.158;2023-05-29T05:02:43;9.93;;;5.13;;
77520;SDS011;66633;47.628;19.158;2023-05-29T05:05:10;8.80;;;4.47;;
77520;SDS011;66633;47.628;19.158;2023-05-29T05:07:36;10.52;;;5.15;;
77520;SDS011;66633;47.628;19.158;2023-05-29T05:10:05;9.35;;;4.85;;
77520;SDS011;66633;47.628;19.158;2023-05-29T05:12:31;8.75;;;4.68;;
77520;SDS011;66633;47.628;19.158;2023-05-29T05:14:57;8.00;;;4.68;;
77520;SDS011;66633;47.628;19.158;2023-05-29T05:17:22;9.57;;;5.07;;
77520;SDS011;66633;47.628;19.158;2023-05-29T05:19:47;10.70;;;4.68;;
77520;SDS011;66633;47.628;19.158;2023-05-29T05:22:18;8.88;;;4.75;;
77520;SDS011;66633;47.628;19.158;2023-05-29T05:24:44;9.85;;;4.53;;
77520;SDS011;66633;47.628;19.158;2023-05-29T05:27:09;8.82;;;4.60;;
77520;SDS011;66633;47.628;19.158;2023-05-29T05:29:34;8.10;;;4.38;;
77520;SDS011;66633;47.628;19.158;2023-05-29T05:32:00;9.73;;;4.40;;
77520;SDS011;66633;47.628;19.158;2023-05-29T05:34:25;9.52;;;4.97;;
77520;SDS011;66633;47.628;19.158;2023-05-29T05:36:51;9.43;;;5.00;;
77520;SDS011;66633;47.628;19.158;2023-05-29T05:39:16;9.27;;;4.28;;
77520;SDS011;66633;47.628;19.158;2023-05-29T05:41:41;9.60;;;4.80;;
77520;SDS011;66633;47.628;19.158;2023-05-29T05:44:07;10.07;;;4.75;;
77520;SDS011;66633;47.628;19.158;2023-05-29T05:46:32;8.40;;;4.63;;
77520;SDS011;66633;47.628;19.158;2023-05-29T05:48:58;10.40;;;5.55;;
77520;SDS011;66633;47.628;19.158;2023-05-29T05:51:24;8.77;;;4.72;;
77520;SDS011;66633;47.628;19.158;2023-05-29T05:53:49;9.65;;;5.10;;
77520;SDS011;66633;47.628;19.158;2023-05-29T05:56:14;11.77;;;5.22;;
77520;SDS011;66633;47.628;19.158;2023-05-29T05:58:40;9.70;;;4.65;;
77520;SDS011;66633;47.628;19.158;2023-05-29T06:01:06;8.73;;;4.78;;
77520;SDS011;66633;47.628;19.158;2023-05-29T06:03:33;9.27;;;4.80;;
77520;SDS011;66633;47.628;19.158;2023-05-29T06:05:58;9.93;;;4.82;;
77520;SDS011;66633;47.628;19.158;2023-05-29T06:08:23;9.27;;;5.35;;
77520;SDS011;66633;47.628;19.158;2023-05-29T06:10:49;9.32;;;5.03;;
77520;SDS011;66633;47.628;19.158;2023-05-29T06:13:14;10.73;;;4.35;;
77520;SDS011;66633;47.628;19.158;2023-05-29T06:15:41;8.27;;;4.07;;
77520;SDS011;66633;47.628;19.158;2023-05-29T06:18:07;10.38;;;4.72;;
77520;SDS011;66633;47.628;19.158;2023-05-29T06:20:32;9.27;;;4.55;;
77520;SDS011;66633;47.628;19.158;2023-05-29T06:22:58;9.35;;;4.30;;
77520;SDS011;66633;47.628;19.158;2023-05-29T06:25:23;8.18;;;4.18;;
77520;SDS011;66633;47.628;19.158;2023-05-29T06:27:57;8.40;;;3.90;;
77520;SDS011;66633;47.628;19.158;2023-05-29T06:30:23;9.43;;;4.95;;
77520;SDS011;66633;47.628;19.158;2023-05-29T06:32:49;9.32;;;4.85;;
77520;SDS011;66633;47.628;19.158;2023-05-29T06:35:14;9.25;;;4.43;;
77520;SDS011;66633;47.628;19.158;2023-05-29T06:37:40;8.38;;;4.53;;
77520;SDS011;66633;47.628;19.158;2023-05-29T06:40:06;8.07;;;4.60;;
77520;SDS011;66633;47.628;19.158;2023-05-29T06:42:31;11.23;;;4.45;;
77520;SDS011;66633;47.628;19.158;2023-05-29T06:44:57;8.00;;;4.40;;
77520;SDS011;66633;47.628;19.158;2023-05-29T06:47:22;9.40;;;4.93;;
77520;SDS011;66633;47.628;19.158;2023-05-29T06:49:48;11.32;;;4.70;;
77520;SDS011;66633;47.628;19.158;2023-05-29T06:52:13;8.20;;;4.65;;
77520;SDS011;66633;47.628;19.158;2023-05-29T06:54:39;9.57;;;4.43;;
77520;SDS011;66633;47.628;19.158;2023-05-29T06:57:06;8.73;;;5.00;;
77520;SDS011;66633;47.628;19.158;2023-05-29T06:59:32;7.80;;;4.30;;
77520;SDS011;66633;47.628;19.158;2023-05-29T07:01:57;8.82;;;5.05;;
77520;SDS011;66633;47.628;19.158;2023-05-29T07:04:23;9.68;;;4.95;;
77520;SDS011;66633;47.628;19.158;2023-05-29T07:06:48;8.20;;;4.28;;
77520;SDS011;66633;47.628;19.158;2023-05-29T07:09:13;7.78;;;4.43;;
77520;SDS011;66633;47.628;19.158;2023-05-29T07:11:39;8.13;;;4.35;;
77520;SDS011;66633;47.628;19.158;2023-05-29T07:14:04;7.63;;;4.65;;
77520;SDS011;66633;47.628;19.158;2023-05-29T07:16:29;10.48;;;5.28;;
77520;SDS011;66633;47.628;19.158;2023-05-29T07:18:55;8.10;;;4.38;;
77520;SDS011;66633;47.628;19.158;2023-05-29T07:21:20;7.57;;;4.85;;
77520;SDS011;66633;47.628;19.158;2023-05-29T07:23:46;9.35;;;5.00;;
77520;SDS011;66633;47.628;19.158;2023-05-29T07:26:11;9.18;;;4.78;;
77520;SDS011;66633;47.628;19.158;2023-05-29T07:28:37;10.13;;;4.50;;
77520;SDS011;66633;47.628;19.158;2023-05-29T07:31:02;10.13;;;4.75;;
77520;SDS011;66633;47.628;19.158;2023-05-29T07:33:28;7.45;;;4.63;;
77520;SDS011;66633;47.628;19.158;2023-05-29T07:35:53;9.85;;;4.32;;
77520;SDS011;66633;47.628;19.158;2023-05-29T07:38:18;9.63;;;5.13;;
77520;SDS011;66633;47.628;19.158;2023-05-29T07:40:44;9.57;;;4.75;;
77520;SDS011;66633;47.628;19.158;2023-05-29T07:43:09;9.45;;;5.00;;
77520;SDS011;66633;47.628;19.158;2023-05-29T07:45:35;8.15;;;4.00;;
77520;SDS011;66633;47.628;19.158;2023-05-29T07:48:00;7.93;;;4.35;;
77520;SDS011;66633;47.628;19.158;2023-05-29T07:50:26;9.50;;;4.55;;
77520;SDS011;66633;47.628;19.158;2023-05-29T07:52:51;8.93;;;4.65;;
77520;SDS011;66633;47.628;19.158;2023-05-29T07:55:17;7.93;;;4.10;;
77520;SDS011;66633;47.628;19.158;2023-05-29T07:57:43;8.10;;;4.68;;
77520;SDS011;66633;47.628;19.158;2023-05-29T08:00:08;9.77;;;4.70;;
77520;SDS011;66633;47.628;19.158;2023-05-29T08:02:38;11.95;;;5.07;;
77520;SDS011;66633;47.628;19.158;2023-05-29T08:05:03;11.35;;;4.85;;
77520;SDS011;66633;47.628;19.158;2023-05-29T08:07:29;8.60;;;5.18;;
77520;SDS011;66633;47.628;19.158;2023-05-29T08:09:55;11.02;;;5.13;;
77520;SDS011;66633;47.628;19.158;2023-05-29T08:12:20;11.48;;;4.88;;
77520;SDS011;66633;47.628;19.158;2023-05-29T08:14:46;7.80;;;4.53;;
77520;SDS011;66633;47.628;19.158;2023-05-29T08:17:11;9.82;;;4.65;;
77520;SDS011;66633;47.628;19.158;2023-05-29T08:19:37;9.82;;;4.63;;
77520;SDS011;66633;47.628;19.158;2023-05-29T08:22:02;8.02;;;4.70;;
77520;SDS011;66633;47.628;19.158;2023-05-29T08:24:28;10.55;;;5.15;;
77520;SDS011;66633;47.628;19.158;2023-05-29T08:26:53;10.13;;;4.32;;
77520;SDS011;66633;47.628;19.158;2023-05-29T08:29:21;11.68;;;5.30;;
77520;SDS011;66633;47.628;19.158;2023-05-29T08:31:47;11.07;;;5.45;;
77520;SDS011;66633;47.628;19.158;2023-05-29T08:34:12;9.70;;;4.90;;
77520;SDS011;66633;47.628;19.158;2023-05-29T08:36:38;9.90;;;4.93;;
77520;SDS011;66633;47.628;19.158;2023-05-29T08:39:06;8.05;;;4.55;;
77520;SDS011;66633;47.628;19.158;2023-05-29T08:43:57;10.52;;;5.75;;
77520;SDS011;66633;47.628;19.158;2023-05-29T08:48:52;12.10;;;5.90;;
77520;SDS011;66633;47.628;19.158;2023-05-29T08:51:22;10.07;;;4.80;;
77520;SDS011;66633;47.628;19.158;2023-05-29T08:53:54;31.52;;;6.95;;
77520;SDS011;66633;47.628;19.158;2023-05-29T08:56:21;8.05;;;5.10;;
77520;SDS011;66633;47.628;19.158;2023-05-29T08:58:47;9.85;;;5.30;;
77520;SDS011;66633;47.628;19.158;2023-05-29T09:01:14;8.90;;;4.93;;
77520;SDS011;66633;47.628;19.158;2023-05-29T09:03:39;8.43;;;4.90;;
77520;SDS011;66633;47.628;19.158;2023-05-29T09:06:06;9.70;;;5.95;;
77520;SDS011;66633;47.628;19.158;2023-05-29T09:08:33;8.48;;;4.80;;
77520;SDS011;66633;47.628;19.158;2023-05-29T09:11:00;8.98;;;4.60;;
77520;SDS011;66633;47.628;19.158;2023-05-29T09:13:26;9.45;;;5.00;;
77520;SDS011;66633;47.628;19.158;2023-05-29T09:16:02;9.77;;;4.82;;
77520;SDS011;66633;47.628;19.158;2023-05-29T09:18:31;10.23;;;5.70;;
77520;SDS011;66633;47.628;19.158;2023-05-29T09:20:57;8.13;;;4.82;;
77520;SDS011;66633;47.628;19.158;2023-05-29T09:23:24;14.75;;;5.68;;
77520;SDS011;66633;47.628;19.158;2023-05-29T09:25:51;7.35;;;4.80;;
77520;SDS011;66633;47.628;19.158;2023-05-29T09:28:19;7.88;;;5.05;;
77520;SDS011;66633;47.628;19.158;2023-05-29T09:30:46;7.97;;;5.30;;
77520;SDS011;66633;47.628;19.158;2023-05-29T09:33:13;8.82;;;5.65;;
77520;SDS011;66633;47.628;19.158;2023-05-29T09:35:40;9.00;;;4.97;;
77520;SDS011;66633;47.628;19.158;2023-05-29T09:38:10;8.27;;;4.90;;
77520;SDS011;66633;47.628;19.158;2023-05-29T09:40:37;10.13;;;5.13;;
77520;SDS011;66633;47.628;19.158;2023-05-29T09:43:17;18.05;;;5.80;;
77520;SDS011;66633;47.628;19.158;2023-05-29T09:45:45;8.15;;;5.22;;
77520;SDS011;66633;47.628;19.158;2023-05-29T09:48:13;9.10;;;5.18;;
77520;SDS011;66633;47.628;19.158;2023-05-29T09:50:40;8.27;;;5.32;;
77520;SDS011;66633;47.628;19.158;2023-05-29T09:53:17;7.57;;;5.15;;
77520;SDS011;66633;47.628;19.158;2023-05-29T09:55:48;10.60;;;6.38;;
77520;SDS011;66633;47.628;19.158;2023-05-29T09:58:16;8.43;;;5.55;;
77520;SDS011;66633;47.628;19.158;2023-05-29T10:00:43;7.97;;;5.30;;
77520;SDS011;66633;47.628;19.158;2023-05-29T10:03:09;8.82;;;5.28;;
77520;SDS011;66633;47.628;19.158;2023-05-29T10:05:40;8.35;;;5.88;;
77520;SDS011;66633;47.628;19.158;2023-05-29T10:10:46;9.07;;;5.85;;
77520;SDS011;66633;47.628;19.158;2023-05-29T10:13:19;10.85;;;5.38;;
77520;SDS011;66633;47.628;19.158;2023-05-29T10:15:48;10.38;;;5.78;;
77520;SDS011;66633;47.628;19.158;2023-05-29T10:20:53;9.70;;;4.80;;
77520;SDS011;66633;47.628;19.158;2023-05-29T10:25:57;9.30;;;4.80;;
77520;SDS011;66633;47.628;19.158;2023-05-29T10:28:29;8.05;;;5.03;;
77520;SDS011;66633;47.628;19.158;2023-05-29T10:36:24;9.93;;;6.00;;
77520;SDS011;66633;47.628;19.158;2023-05-29T10:38:53;10.73;;;5.68;;
77520;SDS011;66633;47.628;19.158;2023-05-29T10:43:53;8.68;;;5.13;;
77520;SDS011;66633;47.628;19.158;2023-05-29T10:49:18;8.32;;;6.05;;
77520;SDS011;66633;47.628;19.158;2023-05-29T10:51:47;8.55;;;5.55;;
77520;SDS011;66633;47.628;19.158;2023-05-29T10:54:13;13.38;;;5.72;;
77520;SDS011;66633;47.628;19.158;2023-05-29T10:56:41;10.25;;;5.50;;
77520;SDS011;66633;47.628;19.158;2023-05-29T10:59:10;10.10;;;5.15;;
77520;SDS011;66633;47.628;19.158;2023-05-29T11:01:38;7.57;;;4.90;;
77520;SDS011;66633;47.628;19.158;2023-05-29T11:10:42;10.35;;;5.20;;
77520;SDS011;66633;47.628;19.158;2023-05-29T11:13:08;8.00;;;4.60;;
77520;SDS011;66633;47.628;19.158;2023-05-29T11:15:35;10.25;;;6.07;;
77520;SDS011;66633;47.628;19.158;2023-05-29T11:18:08;8.82;;;5.20;;
77520;SDS011;66633;47.628;19.158;2023-05-29T11:20:37;10.88;;;5.85;;
77520;SDS011;66633;47.628;19.158;2023-05-29T11:23:08;9.23;;;5.35;;
77520;SDS011;66633;47.628;19.158;2023-05-29T11:25:44;10.80;;;5.68;;
77520;SDS011;66633;47.628;19.158;2023-05-29T11:28:12;11.20;;;6.25;;
77520;SDS011;66633;47.628;19.158;2023-05-29T11:30:41;9.90;;;5.47;;
77520;SDS011;66633;47.628;19.158;2023-05-29T11:33:14;8.75;;;5.63;;
77520;SDS011;66633;47.628;19.158;2023-05-29T11:35:57;9.57;;;5.05;;
77520;SDS011;66633;47.628;19.158;2023-05-29T11:38:24;8.90;;;5.75;;
77520;SDS011;66633;47.628;19.158;2023-05-29T11:40:52;10.07;;;5.00;;
77520;SDS011;66633;47.628;19.158;2023-05-29T11:43:19;8.68;;;5.13;;
77520;SDS011;66633;47.628;19.158;2023-05-29T11:45:45;9.18;;;5.28;;
77520;SDS011;66633;47.628;19.158;2023-05-29T11:48:10;9.63;;;5.15;;
77520;SDS011;66633;47.628;19.158;2023-05-29T11:50:36;9.18;;;5.50;;
77520;SDS011;66633;47.628;19.158;2023-05-29T11:53:02;7.35;;;5.28;;
77520;SDS011;66633;47.628;19.158;2023-05-29T11:55:27;9.48;;;5.45;;
77520;SDS011;66633;47.628;19.158;2023-05-29T11:57:57;9.05;;;5.75;;
77520;SDS011;66633;47.628;19.158;2023-05-29T12:00:24;9.65;;;5.32;;
77520;SDS011;66633;47.628;19.158;2023-05-29T12:02:50;8.07;;;5.07;;
77520;SDS011;66633;47.628;19.158;2023-05-29T12:05:16;9.93;;;5.35;;
77520;SDS011;66633;47.628;19.158;2023-05-29T12:07:52;7.55;;;4.75;;
77520;SDS011;66633;47.628;19.158;2023-05-29T12:10:19;9.57;;;5.55;;
77520;SDS011;66633;47.628;19.158;2023-05-29T12:12:55;9.43;;;5.80;;
77520;SDS011;66633;47.628;19.158;2023-05-29T12:15:23;8.77;;;5.70;;
77520;SDS011;66633;47.628;19.158;2023-05-29T12:17:49;7.72;;;5.38;;
77520;SDS011;66633;47.628;19.158;2023-05-29T12:20:16;9.38;;;5.82;;
77520;SDS011;66633;47.628;19.158;2023-05-29T12:22:43;10.38;;;5.32;;
77520;SDS011;66633;47.628;19.158;2023-05-29T12:25:14;8.48;;;5.78;;
77520;SDS011;66633;47.628;19.158;2023-05-29T12:27:41;8.27;;;5.43;;
77520;SDS011;66633;47.628;19.158;2023-05-29T12:30:11;8.88;;;5.30;;
77520;SDS011;66633;47.628;19.158;2023-05-29T12:32:45;14.45;;;6.30;;
77520;SDS011;66633;47.628;19.158;2023-05-29T12:37:48;8.13;;;5.45;;
77520;SDS011;66633;47.628;19.158;2023-05-29T12:40:20;10.98;;;6.03;;
77520;SDS011;66633;47.628;19.158;2023-05-29T12:42:57;9.45;;;5.78;;
77520;SDS011;66633;47.628;19.158;2023-05-29T12:45:25;8.95;;;5.57;;
77520;SDS011;66633;47.628;19.158;2023-05-29T12:47:56;8.32;;;5.60;;
77520;SDS011;66633;47.628;19.158;2023-05-29T12:50:22;8.75;;;5.47;;
77520;SDS011;66633;47.628;19.158;2023-05-29T12:53:02;9.95;;;5.78;;
77520;SDS011;66633;47.628;19.158;2023-05-29T12:55:32;9.45;;;6.25;;
77520;SDS011;66633;47.628;19.158;2023-05-29T12:58:01;10.15;;;6.20;;
77520;SDS011;66633;47.628;19.158;2023-05-29T13:00:27;8.43;;;5.93;;
77520;SDS011;66633;47.628;19.158;2023-05-29T13:02:52;8.95;;;5.82;;
77520;SDS011;66633;47.628;19.158;2023-05-29T13:05:18;11.18;;;6.18;;
77520;SDS011;66633;47.628;19.158;2023-05-29T13:07:46;8.05;;;5.13;;
77520;SDS011;66633;47.628;19.158;2023-05-29T13:10:12;8.75;;;5.85;;
77520;SDS011;66633;47.628;19.158;2023-05-29T13:12:38;10.07;;;6.13;;
77520;SDS011;66633;47.628;19.158;2023-05-29T13:15:03;8.55;;;6.43;;
77520;SDS011;66633;47.628;19.158;2023-05-29T13:17:30;9.63;;;6.75;;
77520;SDS011;66633;47.628;19.158;2023-05-29T13:19:56;11.00;;;6.50;;
77520;SDS011;66633;47.628;19.158;2023-05-29T13:22:22;11.27;;;5.82;;
77520;SDS011;66633;47.628;19.158;2023-05-29T13:24:47;8.85;;;5.57;;
77520;SDS011;66633;47.628;19.158;2023-05-29T13:27:14;10.30;;;5.95;;
77520;SDS011;66633;47.628;19.158;2023-05-29T13:29:41;9.52;;;6.00;;
77520;SDS011;66633;47.628;19.158;2023-05-29T13:32:08;9.00;;;6.28;;
77520;SDS011;66633;47.628;19.158;2023-05-29T13:34:33;9.35;;;6.15;;
77520;SDS011;66633;47.628;19.158;2023-05-29T13:36:59;11.65;;;6.97;;
77520;SDS011;66633;47.628;19.158;2023-05-29T13:39:27;10.45;;;6.45;;
77520;SDS011;66633;47.628;19.158;2023-05-29T13:41:53;9.80;;;6.95;;
77520;SDS011;66633;47.628;19.158;2023-05-29T13:44:19;11.35;;;6.63;;
77520;SDS011;66633;47.628;19.158;2023-05-29T13:46:45;11.50;;;7.03;;
77520;SDS011;66633;47.628;19.158;2023-05-29T13:49:10;10.45;;;6.43;;
77520;SDS011;66633;47.628;19.158;2023-05-29T13:51:36;13.35;;;7.32;;
77520;SDS011;66633;47.628;19.158;2023-05-29T13:54:01;10.27;;;6.43;;
77520;SDS011;66633;47.628;19.158;2023-05-29T13:56:29;10.10;;;7.20;;
77520;SDS011;66633;47.628;19.158;2023-05-29T13:58:54;10.30;;;6.43;;
77520;SDS011;66633;47.628;19.158;2023-05-29T14:01:20;10.45;;;6.70;;
77520;SDS011;66633;47.628;19.158;2023-05-29T14:03:46;10.23;;;6.05;;
77520;SDS011;66633;47.628;19.158;2023-05-29T14:06:11;12.23;;;6.35;;
77520;SDS011;66633;47.628;19.158;2023-05-29T14:08:37;10.02;;;6.13;;
77520;SDS011;66633;47.628;19.158;2023-05-29T14:11:03;10.55;;;5.82;;
77520;SDS011;66633;47.628;19.158;2023-05-29T14:13:28;7.28;;;4.75;;
77520;SDS011;66633;47.628;19.158;2023-05-29T14:15:54;11.52;;;5.55;;
77520;SDS011;66633;47.628;19.158;2023-05-29T14:18:22;8.27;;;4.78;;
77520;SDS011;66633;47.628;19.158;2023-05-29T14:20:47;11.40;;;6.65;;
77520;SDS011;66633;47.628;19.158;2023-05-29T14:23:13;12.60;;;7.15;;
77520;SDS011;66633;47.628;19.158;2023-05-29T14:28:11;10.35;;;6.20;;
77520;SDS011;66633;47.628;19.158;2023-05-29T14:30:38;9.55;;;5.03;;
77520;SDS011;66633;47.628;19.158;2023-05-29T14:33:04;6.88;;;4.22;;
77520;SDS011;66633;47.628;19.158;2023-05-29T14:35:30;10.30;;;5.72;;
77520;SDS011;66633;47.628;19.158;2023-05-29T14:40:50;8.10;;;5.32;;
77520;SDS011;66633;47.628;19.158;2023-05-29T14:43:16;8.38;;;5.18;;
77520;SDS011;66633;47.628;19.158;2023-05-29T14:45:41;9.45;;;5.40;;
77520;SDS011;66633;47.628;19.158;2023-05-29T14:48:07;9.65;;;5.80;;
77520;SDS011;66633;47.628;19.158;2023-05-29T14:50:32;8.43;;;5.63;;
77520;SDS011;66633;47.628;19.158;2023-05-29T14:52:58;9.50;;;6.03;;
77520;SDS011;66633;47.628;19.158;2023-05-29T14:55:23;11.10;;;7.13;;
77520;SDS011;66633;47.628;19.158;2023-05-29T14:57:49;9.18;;;5.55;;
77520;SDS011;66633;47.628;19.158;2023-05-29T15:00:14;12.07;;;6.20;;
77520;SDS011;66633;47.628;19.158;2023-05-29T15:02:40;9.45;;;5.88;;
77520;SDS011;66633;47.628;19.158;2023-05-29T15:05:06;8.95;;;5.55;;
77520;SDS011;66633;47.628;19.158;2023-05-29T15:07:32;10.52;;;5.80;;
77520;SDS011;66633;47.628;19.158;2023-05-29T15:10:00;10.20;;;6.43;;
77520;SDS011;66633;47.628;19.158;2023-05-29T15:12:26;9.82;;;6.35;;
77520;SDS011;66633;47.628;19.158;2023-05-29T15:14:51;9.52;;;6.55;;
77520;SDS011;66633;47.628;19.158;2023-05-29T15:17:17;9.77;;;6.45;;
77520;SDS011;66633;47.628;19.158;2023-05-29T15:19:43;9.85;;;5.90;;
77520;SDS011;66633;47.628;19.158;2023-05-29T15:22:09;8.75;;;5.68;;